Disclaimer

Please do not use the information listed here in-flight or in-navigation, as they are not provided to us by the airports but are provided by volunteers, so they might be outdated.

Search


Regions


Airport information page

Radio informations:
SAINT ETIENNE TW - 118.65 MHz
SAINT ETIENNE AT - 132.8 MHz
SAINT ETIENNE AP - 118.65 MHz

Airport informations:
Latitude: 45° 32' 25.99" N
Longitude: 004° 17' 47.00" E
Elevation: 1325 feet - 404 meters
Operating hours: Remarks
Operating agency: Civil government, landing fees and diplomatic clearance may be required
Timezone: UTC+1(+2DT) - Last Sunday in March to last Sunday in October
Fuel: Jet A1, without icing nhibitor.

100/130 MIL Spec, low lead, aviation gasoline (BLUE)

Runway information:
18/36 - 7546 x 148 feet< - >2300 x 45 meters

Recent METARs:
LFMH 210700Z AUTO VRB02KT 8000 OVC008 02/01 Q1009 TEMPO 3000 -RA BR OVC003
LFMH 210730Z AUTO 00000KT 8000 OVC007 02/01 Q1010 TEMPO 3000 -RA BR OVC003
LFMH 210800Z AUTO 00000KT 6000 OVC008 02/02 Q1010 TEMPO 3000 -RA BR OVC003

Airport on the map: